Time;durP1;ratioP1;P1;durP2;ratioP2;P2;SDS_P1;SDS_P2;PMS_P1;PMS_P2;Temp;Humidity;BMP_temperature;BMP_pressure;BME280_temperature;BME280_humidity;BME280_pressure;Samples;Min_cycle;Max_cycle;Signal;HPM_P1;HPM_P2
2021/12/11 00:00:28;;;;;;;3.25;2.10;;;;;;;3.79;89.25;99120.28;5032566;28;20443;-78
2021/12/11 00:03:04;;;;;;;3.40;2.23;;;;;;;3.76;89.21;99129.59;5036835;28;21004;-79
2021/12/11 00:05:30;;;;;;;4.97;2.15;;;;;;;3.77;89.16;99128.53;5053477;28;20407;-79
2021/12/11 00:07:56;;;;;;;2.53;1.75;;;;;;;3.75;89.14;99133.31;5046912;28;20417;-80
2021/12/11 00:10:29;;;;;;;2.10;1.38;;;;;;;3.66;88.95;99148.91;5033589;28;20829;-78
2021/12/11 00:12:59;;;;;;;3.05;1.38;;;;;;;3.66;88.59;99151.59;5040805;28;20519;-79
2021/12/11 00:15:33;;;;;;;3.17;1.40;;;;;;;3.61;88.82;99151.50;5042991;28;20671;-79
2021/12/11 00:18:01;;;;;;;1.90;1.37;;;;;;;3.58;88.86;99145.78;5038655;28;20457;-78
2021/12/11 00:20:30;;;;;;;1.05;0.90;;;;;;;3.57;88.85;99161.03;5044941;28;20397;-79
2021/12/11 00:22:56;;;;;;;1.65;1.10;;;;;;;3.64;88.72;99160.91;5034684;28;20406;-78
2021/12/11 00:25:22;;;;;;;1.15;1.08;;;;;;;3.60;88.59;99165.09;5037291;28;20413;-79
2021/12/11 00:27:50;;;;;;;1.95;1.08;;;;;;;3.59;88.93;99169.63;5035730;28;20395;-79
2021/12/11 00:30:29;;;;;;;2.90;2.63;;;;;;;3.61;88.55;99172.91;5042295;28;20405;-79
2021/12/11 00:33:01;;;;;;;1.10;1.10;;;;;;;3.52;88.96;99182.31;5046337;28;20457;-78
2021/12/11 00:35:27;;;;;;;3.72;3.53;;;;;;;3.64;88.87;99180.50;5032410;28;20402;-79
2021/12/11 00:38:00;;;;;;;1.92;1.38;;;;;;;3.64;88.76;99185.84;5037953;28;20405;-79
2021/12/11 00:40:26;;;;;;;2.10;1.30;;;;;;;3.63;88.72;99184.22;5035311;28;20464;-79
2021/12/11 00:42:56;;;;;;;1.83;1.27;;;;;;;3.65;88.28;99187.47;5035214;28;20412;-78
2021/12/11 00:45:26;;;;;;;1.30;1.20;;;;;;;3.76;88.11;99195.75;5040095;28;20722;-79
2021/12/11 00:48:00;;;;;;;1.02;1.00;;;;;;;3.63;88.12;99196.78;5036449;28;20402;-79
2021/12/11 00:50:30;;;;;;;1.92;1.83;;;;;;;3.57;88.50;99203.06;5036599;28;20406;-79
2021/12/11 00:53:04;;;;;;;1.30;1.10;;;;;;;3.53;88.38;99213.41;5052975;28;20864;-78
2021/12/11 00:55:33;;;;;;;1.55;1.45;;;;;;;3.62;88.24;99221.97;5031290;28;20761;-79
2021/12/11 00:58:07;;;;;;;3.00;2.50;;;;;;;3.57;88.48;99222.63;5055341;28;20949;-79
2021/12/11 01:00:37;;;;;;;1.90;1.52;;;;;;;3.65;87.94;99227.66;5044705;28;20445;-79
2021/12/11 01:03:04;;;;;;;2.30;2.10;;;;;;;3.60;88.04;99240.09;5032821;28;20410;-79
2021/12/11 01:05:35;;;;;;;2.13;2.03;;;;;;;3.61;88.35;99252.47;5037219;28;20468;-78
2021/12/11 01:08:12;;;;;;;3.38;3.08;;;;;;;3.62;88.06;99260.25;5031823;28;20902;-79
2021/12/11 01:10:37;;;;;;;10.68;9.77;;;;;;;3.62;88.08;99262.13;5034296;28;20403;-79
2021/12/11 01:13:04;;;;;;;6.40;5.90;;;;;;;3.64;88.13;99262.72;5032375;28;20809;-79
2021/12/11 01:15:44;;;;;;;5.65;5.22;;;;;;;3.68;88.11;99269.25;5033111;28;20402;-79
2021/12/11 01:18:22;;;;;;;11.75;10.70;;;;;;;3.71;87.98;99278.69;5036458;28;20400;-79
2021/12/11 01:21:12;;;;;;;2.83;2.63;;;;;;;3.64;87.62;99282.28;5035638;28;20411;-79
2021/12/11 01:26:13;;;;;;;2.63;2.42;;;;;;;3.66;88.14;99306.97;5038949;28;20456;-79
2021/12/11 01:28:39;;;;;;;3.00;2.80;;;;;;;3.62;87.92;99311.16;5039480;28;20424;-79
2021/12/11 01:31:07;;;;;;;4.80;4.40;;;;;;;3.58;87.84;99315.34;5038392;28;20403;-79
2021/12/11 01:33:34;;;;;;;2.85;2.75;;;;;;;3.55;88.18;99321.16;5039563;28;20431;-79
2021/12/11 01:36:00;;;;;;;2.42;2.33;;;;;;;3.64;87.93;99321.66;5033959;28;20472;-79
2021/12/11 01:38:28;;;;;;;2.17;2.00;;;;;;;3.70;87.50;99336.00;5031199;28;20407;-79
2021/12/11 01:40:58;;;;;;;1.88;1.77;;;;;;;3.59;87.79;99341.09;5062567;28;20422;-79
2021/12/11 01:43:28;;;;;;;1.80;1.70;;;;;;;3.60;87.83;99347.25;5045027;28;20729;-78
2021/12/11 01:45:55;;;;;;;2.03;1.88;;;;;;;3.60;87.77;99350.75;5033911;28;20396;-79
2021/12/11 01:48:26;;;;;;;2.25;2.15;;;;;;;3.55;87.60;99347.97;5039375;28;20399;-79
2021/12/11 01:50:58;;;;;;;2.50;2.30;;;;;;;3.53;87.39;99352.69;5040624;28;20948;-79
2021/12/11 01:53:30;;;;;;;2.23;2.03;;;;;;;3.56;87.97;99362.13;5035789;28;20888;-79
2021/12/11 01:56:00;;;;;;;2.20;2.05;;;;;;;3.48;87.73;99368.66;5051442;28;20403;-79
2021/12/11 01:58:34;;;;;;;2.50;2.40;;;;;;;3.46;88.06;99375.25;5038543;28;20430;-79
2021/12/11 02:01:05;;;;;;;2.38;2.22;;;;;;;3.57;87.77;99377.19;5060980;28;20397;-78
2021/12/11 02:03:34;;;;;;;2.50;2.30;;;;;;;3.48;87.59;99386.56;5035723;28;20413;-79
2021/12/11 02:05:59;;;;;;;2.53;2.33;;;;;;;3.48;88.07;99392.75;5042915;28;20407;-79
2021/12/11 02:08:30;;;;;;;2.95;2.80;;;;;;;3.54;87.86;99405.25;5036820;28;21079;-79
2021/12/11 02:11:13;;;;;;;2.55;2.45;;;;;;;3.57;87.36;99415.50;5053956;28;20394;-79
2021/12/11 02:13:46;;;;;;;2.50;2.40;;;;;;;3.43;88.00;99411.34;5044208;28;20419;-79
2021/12/11 02:16:27;;;;;;;2.53;2.42;;;;;;;3.47;87.97;99414.38;5035168;28;20427;-79
2021/12/11 02:19:02;;;;;;;2.60;2.40;;;;;;;3.56;87.86;99426.44;5044487;28;20413;-79
2021/12/11 02:21:36;;;;;;;2.88;2.67;;;;;;;3.57;87.36;99436.94;5038507;28;20402;-79
2021/12/11 02:24:07;;;;;;;3.08;2.90;;;;;;;3.63;87.37;99443.25;5043075;28;20415;-79
2021/12/11 02:26:35;;;;;;;3.60;3.30;;;;;;;3.63;87.35;99451.28;5047646;28;20405;-79
2021/12/11 02:29:23;;;;;;;4.18;3.78;;;;;;;3.69;87.15;99446.91;5034469;28;20968;-79
2021/12/11 02:32:17;;;;;;;4.78;3.78;;;;;;;3.70;87.13;99468.09;5034830;28;20801;-79
2021/12/11 02:34:48;;;;;;;3.53;3.33;;;;;;;3.64;87.14;99460.97;5034874;28;20411;-79
2021/12/11 02:37:21;;;;;;;3.80;3.60;;;;;;;3.63;87.38;99470.88;5039235;28;20399;-79
2021/12/11 02:39:55;;;;;;;3.17;3.08;;;;;;;3.65;87.06;99474.13;5037492;28;20499;-79
2021/12/11 02:42:30;;;;;;;4.03;3.72;;;;;;;3.59;86.94;99480.38;5038835;28;20405;-79
2021/12/11 02:45:18;;;;;;;3.60;3.40;;;;;;;3.66;87.01;99488.34;5041039;28;20413;-79
2021/12/11 02:47:58;;;;;;;3.15;2.97;;;;;;;3.51;87.21;99490.59;5031550;28;20410;-79
2021/12/11 02:50:35;;;;;;;3.13;3.00;;;;;;;3.54;86.81;99498.19;5040602;28;20414;-78
2021/12/11 02:53:09;;;;;;;3.50;3.22;;;;;;;3.57;86.42;99495.06;5035701;28;20918;-80
2021/12/11 02:55:37;;;;;;;3.20;3.00;;;;;;;3.58;86.15;99504.72;5041525;28;20430;-79
2021/12/11 02:58:16;;;;;;;3.50;3.30;;;;;;;3.50;86.00;99513.88;5042444;28;20401;-78
2021/12/11 03:00:59;;;;;;;3.47;3.27;;;;;;;3.44;86.20;99514.75;5034734;28;20461;-79
2021/12/11 03:03:31;;;;;;;3.30;3.13;;;;;;;3.42;86.11;99514.19;5042689;28;20830;-79
2021/12/11 03:06:16;;;;;;;3.80;3.60;;;;;;;3.39;86.67;99517.28;5044559;28;20415;-79
2021/12/11 03:08:42;;;;;;;4.10;3.85;;;;;;;3.43;86.59;99529.19;5040160;28;20403;-79
2021/12/11 03:11:12;;;;;;;4.33;4.03;;;;;;;3.39;86.52;99532.53;5043396;28;20416;-79
2021/12/11 03:13:39;;;;;;;4.45;4.05;;;;;;;3.41;86.22;99544.66;5034301;28;20414;-79
2021/12/11 03:16:07;;;;;;;5.00;4.60;;;;;;;3.42;86.38;99543.63;5037639;28;20400;-79
2021/12/11 03:18:33;;;;;;;6.85;6.25;;;;;;;3.38;86.46;99550.47;5033952;28;20398;-78
2021/12/11 03:20:59;;;;;;;5.23;4.83;;;;;;;3.33;86.50;99555.66;5034070;28;20469;-79
2021/12/11 03:23:24;;;;;;;7.23;6.63;;;;;;;3.27;86.93;99572.59;5040766;28;20908;-79
2021/12/11 03:25:51;;;;;;;5.80;5.40;;;;;;;3.26;87.53;99568.28;5033049;28;20501;-79
2021/12/11 03:28:20;;;;;;;6.68;6.07;;;;;;;3.29;87.37;99578.56;5045702;28;20461;-79
2021/12/11 03:30:56;;;;;;;8.03;7.23;;;;;;;3.31;87.09;99586.38;5032848;28;20407;-79
2021/12/11 03:33:26;;;;;;;8.10;7.30;;;;;;;3.27;87.42;99590.53;5036904;28;20418;-79
2021/12/11 03:35:55;;;;;;;8.50;7.63;;;;;;;3.38;87.39;99595.16;5033584;28;20878;-79
2021/12/11 03:38:21;;;;;;;7.65;6.78;;;;;;;3.49;86.83;99600.63;5041162;28;20379;-79
2021/12/11 03:40:47;;;;;;;7.68;6.90;;;;;;;3.43;86.72;99604.19;5040167;28;20419;-79
2021/12/11 03:43:14;;;;;;;6.80;6.20;;;;;;;3.43;87.32;99611.38;5037621;28;20443;-79
2021/12/11 03:45:45;;;;;;;7.78;7.07;;;;;;;3.42;86.63;99626.66;5039308;28;20406;-79
2021/12/11 03:48:20;;;;;;;7.43;6.78;;;;;;;3.38;87.38;99622.78;5033338;28;20482;-79
2021/12/11 03:50:46;;;;;;;8.17;7.47;;;;;;;3.35;87.08;99633.94;5060404;28;20400;-80
2021/12/11 03:53:13;;;;;;;7.90;7.20;;;;;;;3.43;86.97;99635.50;5037255;28;20413;-79
2021/12/11 03:55:46;;;;;;;8.45;7.65;;;;;;;3.41;87.14;99650.97;5043157;28;20409;-79
2021/12/11 03:58:12;;;;;;;8.20;7.50;;;;;;;3.33;87.46;99652.06;5036425;28;20407;-79
2021/12/11 04:00:43;;;;;;;8.98;8.18;;;;;;;3.30;87.56;99655.16;5035843;28;20465;-79
2021/12/11 04:03:10;;;;;;;8.45;7.55;;;;;;;3.36;87.56;99656.97;5036463;28;20402;-79
2021/12/11 04:05:40;;;;;;;9.27;8.38;;;;;;;3.28;87.33;99661.78;5043924;28;20403;-79
2021/12/11 04:08:08;;;;;;;8.82;8.02;;;;;;;3.38;87.44;99664.81;5041504;28;20439;-79
2021/12/11 04:10:34;;;;;;;9.57;8.57;;;;;;;3.42;87.30;99666.00;5040010;28;20391;-80
2021/12/11 04:13:04;;;;;;;8.83;8.03;;;;;;;3.41;87.50;99675.91;5047789;28;20415;-79
2021/12/11 04:15:29;;;;;;;9.70;8.80;;;;;;;3.48;87.10;99675.84;5039905;28;20408;-79
2021/12/11 04:17:55;;;;;;;9.43;8.57;;;;;;;3.47;87.01;99682.25;5033703;28;20398;-79
2021/12/11 04:20:24;;;;;;;10.70;9.10;;;;;;;3.46;87.00;99688.63;5034209;28;20399;-79
2021/12/11 04:22:50;;;;;;;14.83;10.70;;;;;;;3.39;87.35;99693.22;5034962;28;20407;-79
2021/12/11 04:25:18;;;;;;;16.38;10.63;;;;;;;3.37;87.63;99701.47;5038196;28;20403;-79
2021/12/11 04:27:44;;;;;;;20.58;12.48;;;;;;;3.39;87.60;99710.09;5033322;28;20421;-79
2021/12/11 04:30:13;;;;;;;20.38;12.73;;;;;;;3.38;87.37;99713.84;5040990;28;20401;-79
2021/12/11 04:32:39;;;;;;;23.50;14.63;;;;;;;3.38;87.44;99716.50;5037047;28;20494;-79
2021/12/11 04:35:08;;;;;;;16.65;11.32;;;;;;;3.43;87.06;99719.34;5047233;28;20407;-78
2021/12/11 04:37:35;;;;;;;24.55;13.10;;;;;;;3.44;87.20;99731.72;5047849;28;20468;-79
2021/12/11 04:40:06;;;;;;;13.37;10.47;;;;;;;3.41;87.32;99734.00;5032318;28;21001;-79
2021/12/11 04:45:07;;;;;;;11.23;10.02;;;;;;;3.37;87.44;99741.66;5039089;28;20399;-80
2021/12/11 04:48:39;;;;;;;14.40;10.77;;;;;;;3.28;87.98;99747.47;5032578;28;20403;-79
2021/12/11 04:50:42;;;;;;;14.63;12.30;;;;;;;3.30;87.86;99756.09;5026864;28;20461;-79
2021/12/11 04:53:23;;;;;;;15.93;12.07;;;;;;;3.39;87.42;99758.31;5034073;28;20418;-79
2021/12/11 04:56:12;;;;;;;12.40;10.70;;;;;;;3.41;87.15;99758.94;5039339;28;20405;-79
2021/12/11 05:01:34;;;;;;;10.55;9.43;;;;;;;3.34;87.38;99758.16;5033586;28;20403;-79
2021/12/11 05:07:00;;;;;;;10.32;9.25;;;;;;;3.32;87.75;99773.63;5038097;28;20397;-79
2021/12/11 05:09:38;;;;;;;10.68;9.48;;;;;;;3.35;87.74;99780.41;5038110;28;20399;-79
2021/12/11 05:12:44;;;;;;;10.68;9.55;;;;;;;3.38;87.60;99793.34;5039812;28;20419;-79
2021/12/11 05:15:06;;;;;;;10.77;9.70;;;;;;;3.36;87.38;99800.78;5031364;28;20414;-79
2021/12/11 05:17:32;;;;;;;9.88;8.85;;;;;;;3.20;87.62;99803.94;5039180;28;20886;-79
2021/12/11 05:19:58;;;;;;;10.57;9.57;;;;;;;3.19;88.17;99811.16;5033346;28;20426;-79
2021/12/11 05:22:23;;;;;;;9.77;8.87;;;;;;;3.20;87.91;99818.16;5038075;28;20738;-79
2021/12/11 05:24:53;;;;;;;10.65;9.65;;;;;;;3.22;87.70;99816.09;5035159;28;20536;-79
2021/12/11 05:27:19;;;;;;;10.00;9.00;;;;;;;3.35;87.41;99828.59;5035998;28;20406;-79
2021/12/11 05:29:45;;;;;;;10.68;9.57;;;;;;;3.33;87.06;99834.16;5039012;28;20921;-80
2021/12/11 05:32:14;;;;;;;10.85;9.85;;;;;;;3.33;87.31;99834.16;5036686;28;20427;-79
2021/12/11 05:34:40;;;;;;;11.07;9.98;;;;;;;3.39;87.16;99844.00;5053658;28;20401;-79
2021/12/11 05:37:06;;;;;;;10.90;9.80;;;;;;;3.33;87.23;99846.72;5040010;28;20460;-79
2021/12/11 05:39:31;;;;;;;11.23;10.13;;;;;;;3.30;87.38;99853.34;5050187;28;20391;-79
2021/12/11 05:41:57;;;;;;;11.33;10.27;;;;;;;3.34;87.45;99856.41;5047195;28;20409;-79
2021/12/11 05:44:24;;;;;;;12.33;11.07;;;;;;;3.32;87.26;99859.31;5043335;28;20399;-79
2021/12/11 05:46:51;;;;;;;12.48;10.80;;;;;;;3.27;87.53;99863.63;5042993;28;20809;-79
2021/12/11 05:49:17;;;;;;;12.57;11.27;;;;;;;3.24;88.24;99869.41;5038715;28;20493;-78
2021/12/11 05:51:46;;;;;;;12.75;11.55;;;;;;;3.34;87.65;99870.63;5040814;28;20822;-79
2021/12/11 05:54:21;;;;;;;13.40;12.10;;;;;;;3.42;86.87;99880.28;5040582;28;20406;-79
2021/12/11 05:56:46;;;;;;;13.00;11.70;;;;;;;3.43;87.30;99884.59;5044524;28;20409;-79
2021/12/11 05:59:16;;;;;;;14.18;12.77;;;;;;;3.39;87.06;99880.72;5040359;28;20754;-79
2021/12/11 06:01:45;;;;;;;13.45;12.13;;;;;;;3.28;87.50;99892.91;5038945;28;20422;-79
2021/12/11 06:04:16;;;;;;;13.60;12.35;;;;;;;3.30;87.53;99901.53;5036356;28;20874;-79
2021/12/11 06:06:43;;;;;;;13.73;12.40;;;;;;;3.31;87.65;99907.72;5037284;28;20399;-79
2021/12/11 06:09:12;;;;;;;15.07;13.57;;;;;;;3.28;87.60;99908.13;5051349;28;20395;-79
2021/12/11 06:11:39;;;;;;;14.27;12.88;;;;;;;3.33;87.76;99911.00;5036529;28;20437;-79
2021/12/11 06:14:05;;;;;;;15.07;13.60;;;;;;;3.27;87.70;99926.06;5034847;28;20418;-80
2021/12/11 06:16:31;;;;;;;15.20;13.60;;;;;;;3.27;87.89;99927.91;5039097;28;20408;-79
2021/12/11 06:19:02;;;;;;;15.82;14.13;;;;;;;3.30;87.74;99931.00;5035928;28;20454;-79
2021/12/11 06:21:28;;;;;;;15.90;14.23;;;;;;;3.34;87.48;99934.06;5042378;28;20403;-79
2021/12/11 06:23:53;;;;;;;14.97;13.50;;;;;;;3.35;87.80;99933.06;5035119;28;20877;-79
2021/12/11 06:26:19;;;;;;;15.00;13.40;;;;;;;3.38;87.73;99936.13;5046198;28;20394;-79
2021/12/11 06:28:44;;;;;;;16.00;13.80;;;;;;;3.39;87.54;99945.78;5041440;28;20948;-79
2021/12/11 06:31:17;;;;;;;14.40;13.00;;;;;;;3.40;87.31;99947.44;5040209;28;20418;-79
2021/12/11 06:33:43;;;;;;;17.00;14.00;;;;;;;3.45;87.20;99946.81;5034491;28;20541;-79
2021/12/11 06:36:10;;;;;;;14.83;13.33;;;;;;;3.42;86.95;99955.28;5042107;28;20488;-79
2021/12/11 06:38:37;;;;;;;14.93;13.43;;;;;;;3.35;87.43;99960.66;5037391;28;20487;-79
2021/12/11 06:41:07;;;;;;;15.30;13.80;;;;;;;3.45;87.03;99973.59;5044867;28;20411;-79
2021/12/11 06:43:34;;;;;;;14.80;13.25;;;;;;;3.47;87.15;99972.34;5040884;28;20427;-79
2021/12/11 06:46:00;;;;;;;14.37;12.67;;;;;;;3.49;86.99;99982.88;5034317;28;20410;-78
2021/12/11 06:48:26;;;;;;;14.00;12.60;;;;;;;3.49;86.78;99985.56;5036912;28;20399;-79
2021/12/11 06:50:52;;;;;;;13.87;12.57;;;;;;;3.48;87.08;99994.63;5052711;28;20915;-79
2021/12/11 06:53:26;;;;;;;14.18;12.68;;;;;;;3.49;87.03;99999.75;5035292;28;20431;-79
2021/12/11 06:55:52;;;;;;;14.52;13.07;;;;;;;3.49;86.63;100009.66;5033528;28;20402;-79
2021/12/11 06:58:17;;;;;;;13.80;12.40;;;;;;;3.40;87.17;100017.09;5036697;28;20894;-79
2021/12/11 07:00:43;;;;;;;15.47;13.77;;;;;;;3.40;87.17;100014.41;5038831;28;20463;-79
2021/12/11 07:03:08;;;;;;;16.20;13.80;;;;;;;3.44;87.17;100025.53;5050655;28;20909;-79
2021/12/11 07:05:36;;;;;;;14.73;13.23;;;;;;;3.45;86.68;100035.22;5035798;28;20835;-79
2021/12/11 07:08:04;;;;;;;15.27;13.77;;;;;;;3.44;87.13;100031.72;5045006;28;20760;-79
2021/12/11 07:10:30;;;;;;;15.63;13.90;;;;;;;3.46;87.03;100045.72;5045161;28;20424;-79
2021/12/11 07:12:55;;;;;;;14.93;13.43;;;;;;;3.48;86.81;100048.19;5044254;28;20719;-79
2021/12/11 07:15:21;;;;;;;14.47;13.00;;;;;;;3.46;86.80;100061.78;5033380;28;20423;-79
2021/12/11 07:17:46;;;;;;;14.20;12.73;;;;;;;3.42;87.09;100067.78;5045434;28;20465;-79
2021/12/11 07:20:13;;;;;;;13.93;12.53;;;;;;;3.32;87.63;100073.56;5036584;28;20415;-79
2021/12/11 07:22:41;;;;;;;14.10;12.60;;;;;;;3.35;87.61;100083.84;5036442;28;20407;-79
2021/12/11 07:25:21;;;;;;;13.57;12.27;;;;;;;3.32;87.73;100086.13;5040468;28;20402;-79
2021/12/11 07:27:47;;;;;;;14.47;12.97;;;;;;;3.31;87.72;100087.16;5046470;28;20941;-79
2021/12/11 07:30:14;;;;;;;14.35;12.85;;;;;;;3.28;87.86;100100.94;5039104;28;20440;-78
2021/12/11 07:32:39;;;;;;;14.75;13.15;;;;;;;3.36;87.61;100106.13;5052268;28;20475;-79
2021/12/11 07:35:06;;;;;;;16.47;13.93;;;;;;;3.34;87.35;100116.19;5040142;28;20395;-79
2021/12/11 07:37:33;;;;;;;13.63;12.23;;;;;;;3.31;87.63;100120.13;5037882;28;20469;-79
2021/12/11 07:39:58;;;;;;;13.88;12.48;;;;;;;3.44;87.45;100130.00;5035826;28;20776;-78
2021/12/11 07:42:24;;;;;;;14.55;13.15;;;;;;;3.52;86.74;100130.59;5054795;28;20433;-79
2021/12/11 07:44:49;;;;;;;14.97;13.17;;;;;;;3.51;86.64;100133.50;5045717;28;20409;-78
2021/12/11 07:47:14;;;;;;;14.77;13.27;;;;;;;3.53;86.82;100144.81;5040206;28;20411;-78
2021/12/11 07:49:40;;;;;;;14.67;13.23;;;;;;;3.47;87.29;100145.66;5038578;28;20493;-79
2021/12/11 07:52:06;;;;;;;14.63;13.13;;;;;;;3.42;87.29;100154.31;5045924;28;20423;-78
2021/12/11 07:54:31;;;;;;;13.75;12.43;;;;;;;3.39;87.60;100169.97;5037130;28;20755;-79
2021/12/11 07:56:58;;;;;;;13.43;12.03;;;;;;;3.40;87.30;100174.28;5043522;28;20449;-79
2021/12/11 07:59:24;;;;;;;13.32;12.00;;;;;;;3.44;87.38;100181.72;5043312;28;20512;-78
2021/12/11 08:01:51;;;;;;;13.73;12.40;;;;;;;3.45;87.19;100190.59;5040411;28;20480;-78
2021/12/11 08:04:18;;;;;;;13.93;12.52;;;;;;;3.46;87.32;100186.84;5040654;28;20457;-79
2021/12/11 08:06:43;;;;;;;13.90;12.55;;;;;;;3.48;87.40;100195.53;5035901;28;20494;-79
2021/12/11 08:09:12;;;;;;;14.63;13.13;;;;;;;3.54;86.93;100200.88;5046712;28;20487;-79
2021/12/11 08:11:38;;;;;;;14.97;13.50;;;;;;;3.65;86.61;100197.56;5049867;28;20397;-79
2021/12/11 08:14:05;;;;;;;14.93;13.43;;;;;;;3.65;86.50;100210.19;5041451;28;20804;-79
2021/12/11 08:16:35;;;;;;;15.32;13.82;;;;;;;3.72;86.45;100212.84;5042053;28;20418;-79
2021/12/11 08:19:04;;;;;;;15.32;13.75;;;;;;;3.78;86.07;100207.50;5039649;28;20429;-79
2021/12/11 08:21:29;;;;;;;15.02;13.60;;;;;;;3.77;86.05;100213.88;5042442;28;20411;-78
2021/12/11 08:23:56;;;;;;;15.47;13.87;;;;;;;3.69;85.98;100224.78;5043565;28;20818;-78
2021/12/11 08:26:26;;;;;;;15.52;13.95;;;;;;;3.61;86.32;100228.53;5044389;28;20402;-79
2021/12/11 08:28:53;;;;;;;15.13;13.52;;;;;;;3.52;86.11;100232.41;5036009;28;20923;-79
2021/12/11 08:31:20;;;;;;;17.05;14.68;;;;;;;3.60;85.89;100234.91;5033618;28;20865;-79
2021/12/11 08:33:47;;;;;;;16.97;15.27;;;;;;;3.53;85.81;100236.75;5034104;28;20743;-80
2021/12/11 08:36:13;;;;;;;16.60;14.82;;;;;;;3.50;86.14;100247.03;5040238;28;20438;-79
2021/12/11 08:38:39;;;;;;;17.27;15.48;;;;;;;3.43;86.38;100247.03;5040860;28;20911;-79
2021/12/11 08:41:07;;;;;;;18.75;14.95;;;;;;;3.45;86.43;100254.88;5034908;28;20475;-80
2021/12/11 08:43:33;;;;;;;17.25;15.27;;;;;;;3.48;86.25;100254.47;5034238;28;20425;-79
2021/12/11 08:46:14;;;;;;;17.05;15.30;;;;;;;3.50;86.42;100258.59;5034641;28;20419;-79
2021/12/11 08:48:45;;;;;;;17.55;15.75;;;;;;;3.64;86.17;100264.78;5038185;28;20936;-80
2021/12/11 08:51:18;;;;;;;16.52;14.50;;;;;;;3.77;86.00;100269.34;5041573;28;20429;-79
2021/12/11 08:53:44;;;;;;;15.48;13.80;;;;;;;4.06;85.39;100277.78;5035688;28;20446;-80
2021/12/11 08:56:10;;;;;;;14.93;13.43;;;;;;;4.19;84.38;100277.78;5038171;28;20424;-80
2021/12/11 08:58:37;;;;;;;14.10;12.75;;;;;;;4.22;84.48;100281.06;5043116;28;20412;-79
2021/12/11 09:01:08;;;;;;;15.13;13.52;;;;;;;4.20;84.83;100283.97;5039800;28;20400;-79
2021/12/11 09:03:38;;;;;;;13.88;12.52;;;;;;;4.36;84.00;100288.91;5039017;28;20405;-80
2021/12/11 09:06:22;;;;;;;14.40;12.90;;;;;;;4.39;83.35;100295.72;5038472;28;20501;-77
2021/12/11 09:08:53;;;;;;;15.57;12.90;;;;;;;4.33;82.89;100301.91;5046766;28;20401;-79
2021/12/11 09:11:41;;;;;;;15.55;14.02;;;;;;;4.39;83.26;100322.53;5048592;28;20397;-80
2021/12/11 09:14:28;;;;;;;14.30;12.80;;;;;;;4.28;83.87;100317.81;5037439;28;20410;-77
2021/12/11 09:17:01;;;;;;;18.92;16.60;;;;;;;4.35;82.94;100326.66;5039551;28;20728;-77
2021/12/11 09:19:34;;;;;;;16.08;14.38;;;;;;;4.41;83.43;100334.69;5040534;28;20410;-79
2021/12/11 09:22:02;;;;;;;17.92;15.43;;;;;;;4.35;83.42;100342.75;5056182;28;20415;-78
2021/12/11 09:24:40;;;;;;;14.63;13.13;;;;;;;4.49;83.01;100345.22;5038689;28;20891;-78
2021/12/11 09:27:23;;;;;;;21.02;17.38;;;;;;;4.39;83.07;100346.69;5034961;28;20414;-77
2021/12/11 09:29:57;;;;;;;21.10;16.67;;;;;;;4.34;83.32;100355.38;5032107;28;20440;-78
2021/12/11 09:32:29;;;;;;;21.35;16.58;;;;;;;4.39;83.30;100354.72;5034846;28;20418;-79
2021/12/11 09:35:00;;;;;;;19.20;16.40;;;;;;;4.38;83.31;100348.53;5038198;28;20471;-79
2021/12/11 09:37:28;;;;;;;18.70;15.83;;;;;;;4.33;82.96;100363.63;5034015;28;20753;-80
2021/12/11 09:39:58;;;;;;;18.98;16.25;;;;;;;4.23;83.00;100376.59;5033522;28;20419;-79
2021/12/11 09:42:26;;;;;;;17.50;15.70;;;;;;;4.15;83.94;100372.25;5037348;28;20391;-77
2021/12/11 09:44:56;;;;;;;18.75;16.27;;;;;;;4.19;84.05;100376.19;5031793;28;20406;-79
2021/12/11 09:47:30;;;;;;;37.95;26.80;;;;;;;4.14;83.83;100384.88;5033100;28;20395;-78
2021/12/11 09:50:03;;;;;;;20.30;16.98;;;;;;;4.21;83.66;100394.78;5038833;28;20454;-77
2021/12/11 09:52:32;;;;;;;18.52;16.67;;;;;;;4.19;84.24;100401.16;5035681;28;20794;-77
2021/12/11 09:55:12;;;;;;;18.53;16.20;;;;;;;4.31;83.78;100400.56;5046039;28;20418;-79
2021/12/11 09:57:42;;;;;;;17.27;14.70;;;;;;;4.57;83.25;100389.81;5037717;28;20403;-84
2021/12/11 10:00:19;;;;;;;17.00;15.17;;;;;;;4.53;82.77;100397.47;5037633;28;20403;-76
2021/12/11 10:02:44;;;;;;;17.75;15.57;;;;;;;4.51;83.69;100396.81;5032975;28;20807;-76
2021/12/11 10:05:30;;;;;;;16.57;14.87;;;;;;;4.56;83.06;100391.69;5043492;28;20401;-78
2021/12/11 10:08:42;;;;;;;16.20;14.60;;;;;;;4.65;83.15;100397.66;5040504;28;20395;-76
2021/12/11 10:11:23;;;;;;;15.77;14.18;;;;;;;4.85;82.73;100397.63;5034039;28;20469;-79
2021/12/11 10:14:00;;;;;;;15.27;13.68;;;;;;;4.88;82.42;100395.34;5044632;28;20417;-78
2021/12/11 10:16:30;;;;;;;15.50;14.00;;;;;;;4.95;82.15;100400.72;5047511;28;20451;-78
2021/12/11 10:18:56;;;;;;;15.73;14.13;;;;;;;5.49;81.11;100403.88;5040854;28;20407;-78
2021/12/11 10:21:30;;;;;;;15.82;14.13;;;;;;;5.50;79.37;100405.50;5039962;28;20414;-78
2021/12/11 10:24:00;;;;;;;15.77;14.20;;;;;;;5.43;79.65;100414.63;5056634;28;20971;-82
2021/12/11 10:26:27;;;;;;;15.30;13.73;;;;;;;5.16;80.04;100403.97;5036090;28;20411;-81
2021/12/11 10:28:57;;;;;;;13.70;12.30;;;;;;;5.04;80.14;100418.25;5037941;28;20399;-82
2021/12/11 10:31:35;;;;;;;12.07;10.88;;;;;;;4.97;79.39;100420.94;5042975;28;20954;-77
2021/12/11 10:34:05;;;;;;;10.82;9.82;;;;;;;4.78;79.55;100431.72;5041794;28;20489;-79
2021/12/11 10:36:38;;;;;;;11.63;10.50;;;;;;;4.74;79.18;100434.00;5037067;28;20439;-79
2021/12/11 10:39:08;;;;;;;12.50;11.30;;;;;;;4.66;79.54;100426.97;5039347;28;20505;-79
2021/12/11 10:41:33;;;;;;;10.23;9.23;;;;;;;4.61;79.37;100434.00;5040065;28;20473;-80
2021/12/11 10:44:13;;;;;;;11.18;10.07;;;;;;;4.54;79.71;100441.22;5042908;28;20397;-80
2021/12/11 10:46:43;;;;;;;10.32;9.23;;;;;;;4.50;79.33;100443.50;5034836;28;20443;-80
2021/12/11 10:49:11;;;;;;;11.30;9.88;;;;;;;4.59;78.75;100444.94;5046745;28;20410;-79
2021/12/11 10:51:41;;;;;;;9.60;8.70;;;;;;;4.55;77.71;100450.91;5034694;28;20395;-78
2021/12/11 10:54:13;;;;;;;8.90;8.05;;;;;;;4.56;77.53;100452.56;5048153;28;20403;-80
2021/12/11 10:56:40;;;;;;;10.05;7.63;;;;;;;4.56;76.65;100453.41;5034632;28;20626;-80
2021/12/11 10:59:14;;;;;;;9.20;7.90;;;;;;;4.67;76.49;100460.84;5040634;28;20844;-78
2021/12/11 11:01:45;;;;;;;9.93;8.93;;;;;;;4.78;76.88;100466.59;5039819;28;20409;-77
2021/12/11 11:04:19;;;;;;;10.73;9.00;;;;;;;4.93;76.17;100470.75;5052023;28;20405;-79
2021/12/11 11:06:45;;;;;;;10.30;9.23;;;;;;;5.11;76.24;100470.09;5042205;28;20927;-79
2021/12/11 11:09:12;;;;;;;8.52;7.68;;;;;;;5.12;75.77;100469.91;5037120;28;20406;-79
2021/12/11 11:11:39;;;;;;;10.70;9.55;;;;;;;5.30;74.93;100471.09;5039970;28;20454;-80
2021/12/11 11:14:07;;;;;;;10.15;9.15;;;;;;;5.26;75.82;100477.94;5039982;28;21252;-80
2021/12/11 11:16:33;;;;;;;10.57;9.50;;;;;;;5.46;75.62;100470.66;5035342;28;20402;-80
2021/12/11 11:18:59;;;;;;;9.57;8.60;;;;;;;5.60;73.93;100475.75;5039237;28;20506;-80
2021/12/11 11:21:29;;;;;;;12.80;10.17;;;;;;;5.88;73.86;100483.56;5037899;28;20408;-80
2021/12/11 11:23:54;;;;;;;8.95;8.15;;;;;;;5.74;74.18;100482.75;5056266;28;20426;-81
2021/12/11 11:26:24;;;;;;;9.20;8.30;;;;;;;5.72;73.12;100484.84;5042540;28;20400;-80
2021/12/11 11:28:51;;;;;;;9.90;8.70;;;;;;;5.81;73.70;100484.56;5042961;28;20407;-80
2021/12/11 11:31:22;;;;;;;11.35;9.60;;;;;;;6.00;73.03;100483.69;5037488;28;20755;-80
2021/12/11 11:33:47;;;;;;;11.52;9.48;;;;;;;6.38;71.84;100489.91;5047241;28;20414;-79
2021/12/11 11:36:18;;;;;;;11.27;9.00;;;;;;;6.26;71.35;100486.25;5033393;28;20396;-80
2021/12/11 11:38:47;;;;;;;14.67;9.67;;;;;;;6.24;72.08;100483.78;5039159;28;20405;-80
2021/12/11 11:41:18;;;;;;;12.38;9.60;;;;;;;6.35;71.95;100492.22;5050365;28;20880;-80
2021/12/11 11:43:45;;;;;;;10.45;9.35;;;;;;;6.49;71.34;100493.75;5043898;28;20406;-79
2021/12/11 11:46:11;;;;;;;10.68;8.68;;;;;;;6.66;70.46;100490.31;5039158;28;20453;-80
2021/12/11 11:48:39;;;;;;;11.70;7.30;;;;;;;6.75;69.74;100496.28;5036272;28;20402;-79
2021/12/11 11:51:27;;;;;;;17.70;9.68;;;;;;;6.65;70.38;100495.94;5046581;28;20398;-80
2021/12/11 11:53:53;;;;;;;16.27;9.98;;;;;;;6.28;71.04;100508.41;5037669;28;20882;-80